Time;durP1;ratioP1;P1;durP2;ratioP2;P2;SDS_P1;SDS_P2;PMS_P1;PMS_P2;Temp;Humidity;BMP_temperature;BMP_pressure;BME280_temperature;BME280_humidity;BME280_pressure;Samples;Min_cycle;Max_cycle;Signal;HPM_P1;HPM_P2
2024/04/08 00:01:44;;;;;;;35.83;5.30;;;;;;;;;;6203397;23;20021;-59
2024/04/08 00:04:11;;;;;;;30.60;5.05;;;;;;;;;;6203096;23;20020;-58
2024/04/08 00:06:43;;;;;;;31.63;5.47;;;;;;;;;;6204675;23;20091;-59
2024/04/08 00:09:09;;;;;;;30.42;4.60;;;;;;;;;;6203071;23;20028;-56
2024/04/08 00:11:43;;;;;;;33.90;5.53;;;;;;;;;;6203362;23;20024;-54
2024/04/08 00:14:09;;;;;;;34.67;5.50;;;;;;;;;;6205385;23;20358;-51
2024/04/08 00:16:35;;;;;;;37.83;4.93;;;;;;;;;;6203319;23;20024;-52
2024/04/08 00:19:08;;;;;;;36.63;5.72;;;;;;;;;;6204528;23;20021;-54
2024/04/08 00:21:34;;;;;;;36.28;5.13;;;;;;;;;;6201668;23;20032;-50
2024/04/08 00:24:06;;;;;;;36.28;5.40;;;;;;;;;;6203209;23;20375;-51
2024/04/08 00:26:40;;;;;;;37.72;5.03;;;;;;;;;;6209244;23;20020;-49
2024/04/08 00:29:20;;;;;;;29.88;4.95;;;;;;;;;;6208683;23;20354;-51
2024/04/08 00:31:47;;;;;;;31.45;4.85;;;;;;;;;;6207769;23;20093;-50
2024/04/08 00:34:13;;;;;;;43.60;5.00;;;;;;;;;;6208681;23;20024;-50
2024/04/08 00:36:45;;;;;;;30.23;4.38;;;;;;;;;;6209629;23;20027;-51
2024/04/08 00:39:18;;;;;;;32.67;4.68;;;;;;;;;;6208081;23;20467;-60
2024/04/08 00:41:50;;;;;;;38.30;4.82;;;;;;;;;;6207423;23;20097;-64
2024/04/08 00:44:17;;;;;;;36.67;5.22;;;;;;;;;;6209167;23;20390;-63
2024/04/08 00:46:49;;;;;;;32.22;4.65;;;;;;;;;;6208751;23;20035;-63
2024/04/08 00:49:16;;;;;;;37.85;5.30;;;;;;;;;;6208289;23;20705;-63
2024/04/08 00:51:44;;;;;;;32.35;5.45;;;;;;;;;;6207312;23;20047;-63
2024/04/08 00:54:16;;;;;;;34.28;5.32;;;;;;;;;;6208199;23;20373;-63
2024/04/08 00:56:44;;;;;;;24.75;4.28;;;;;;;;;;6207850;23;20020;-56
2024/04/08 00:59:12;;;;;;;31.25;4.28;;;;;;;;;;6210007;23;20020;-59
2024/04/08 01:01:44;;;;;;;33.28;5.45;;;;;;;;;;6207234;23;20024;-58
2024/04/08 01:04:11;;;;;;;29.23;4.35;;;;;;;;;;6185835;23;20031;-57
2024/04/08 01:06:38;;;;;;;35.83;4.33;;;;;;;;;;6208089;23;20024;-60
2024/04/08 01:09:11;;;;;;;35.10;4.15;;;;;;;;;;6207754;23;20020;-60
2024/04/08 01:11:37;;;;;;;29.38;4.63;;;;;;;;;;6207059;23;20027;-60
2024/04/08 01:14:10;;;;;;;36.53;4.90;;;;;;;;;;6208471;23;20038;-60
2024/04/08 01:16:37;;;;;;;30.05;5.07;;;;;;;;;;6207733;23;20384;-60
2024/04/08 01:19:03;;;;;;;32.58;4.70;;;;;;;;;;6208786;23;20368;-60
2024/04/08 01:21:35;;;;;;;27.38;4.43;;;;;;;;;;6205918;23;20020;-60
2024/04/08 01:24:03;;;;;;;33.53;4.00;;;;;;;;;;6206954;23;20028;-57
2024/04/08 01:26:29;;;;;;;22.80;3.85;;;;;;;;;;6207543;23;20020;-58
2024/04/08 01:29:09;;;;;;;23.73;4.18;;;;;;;;;;6208237;23;20484;-58
2024/04/08 01:31:35;;;;;;;30.08;4.50;;;;;;;;;;6208005;23;20028;-59
2024/04/08 01:34:03;;;;;;;29.52;4.55;;;;;;;;;;6209324;23;20343;-51
2024/04/08 01:36:35;;;;;;;25.13;3.72;;;;;;;;;;6206577;23;20031;-61
2024/04/08 01:39:09;;;;;;;24.05;4.07;;;;;;;;;;6209093;23;20028;-60
2024/04/08 01:41:42;;;;;;;26.55;4.75;;;;;;;;;;6206541;23;20023;-61
2024/04/08 01:44:09;;;;;;;34.33;4.43;;;;;;;;;;6210360;23;20024;-60
2024/04/08 01:46:35;;;;;;;26.52;4.13;;;;;;;;;;6206360;23;20470;-60
2024/04/08 01:49:08;;;;;;;28.35;3.88;;;;;;;;;;6208958;23;20016;-61
2024/04/08 01:51:34;;;;;;;26.60;4.35;;;;;;;;;;6207043;23;20027;-54
2024/04/08 01:54:12;;;;;;;28.33;4.15;;;;;;;;;;6207797;23;20039;-63
2024/04/08 01:56:41;;;;;;;22.58;4.00;;;;;;;;;;6207285;23;20078;-63
2024/04/08 01:59:13;;;;;;;28.73;4.53;;;;;;;;;;6207023;23;20023;-64
2024/04/08 02:01:47;;;;;;;27.17;3.75;;;;;;;;;;6203033;23;20567;-63
2024/04/08 02:04:13;;;;;;;33.50;4.15;;;;;;;;;;6207424;23;20031;-49
2024/04/08 02:06:45;;;;;;;29.27;4.65;;;;;;;;;;6205946;23;20358;-68
2024/04/08 02:09:12;;;;;;;23.92;4.25;;;;;;;;;;6206933;23;20469;-67
2024/04/08 02:11:38;;;;;;;32.83;4.53;;;;;;;;;;6208423;23;20531;-67
2024/04/08 02:14:11;;;;;;;35.28;4.13;;;;;;;;;;6208279;23;20169;-67
2024/04/08 02:16:38;;;;;;;32.50;5.32;;;;;;;;;;6207254;23;20024;-67
2024/04/08 02:19:04;;;;;;;25.70;3.67;;;;;;;;;;6207201;23;20130;-67
2024/04/08 02:21:36;;;;;;;26.45;3.95;;;;;;;;;;6205795;23;20413;-49
2024/04/08 02:24:03;;;;;;;22.48;3.60;;;;;;;;;;6206897;23;20020;-51
2024/04/08 02:27:02;;;;;;;30.55;4.32;;;;;;;;;;6202831;23;20333;-48
2024/04/08 02:29:49;;;;;;;24.60;4.10;;;;;;;;;;6203197;23;20032;-53
2024/04/08 02:32:41;;;;;;;26.27;4.93;;;;;;;;;;6202389;23;20024;-67
2024/04/08 02:35:28;;;;;;;26.17;4.38;;;;;;;;;;6202028;23;20036;-61
2024/04/08 02:38:21;;;;;;;23.60;4.15;;;;;;;;;;6204309;23;20028;-61
2024/04/08 02:41:13;;;;;;;23.73;4.03;;;;;;;;;;6203255;23;20087;-61
2024/04/08 02:44:05;;;;;;;25.27;4.07;;;;;;;;;;6203528;23;20020;-61
2024/04/08 02:46:52;;;;;;;25.75;4.03;;;;;;;;;;6200928;23;20021;-61
2024/04/08 02:49:44;;;;;;;27.35;4.38;;;;;;;;;;6202757;23;20020;-60
2024/04/08 02:52:31;;;;;;;26.83;4.22;;;;;;;;;;6202577;23;20024;-59
2024/04/08 02:55:23;;;;;;;23.17;5.03;;;;;;;;;;6204040;23;20465;-60
2024/04/08 02:58:16;;;;;;;31.33;4.57;;;;;;;;;;6204392;23;20035;-60
2024/04/08 03:01:03;;;;;;;22.02;4.18;;;;;;;;;;6200871;23;20021;-64
2024/04/08 03:03:57;;;;;;;23.45;3.85;;;;;;;;;;6199713;23;20028;-59
2024/04/08 03:06:43;;;;;;;25.30;4.40;;;;;;;;;;6201554;23;20028;-59
2024/04/08 03:09:35;;;;;;;26.90;3.95;;;;;;;;;;6201797;23;20056;-58
2024/04/08 03:12:24;;;;;;;37.83;4.70;;;;;;;;;;6201419;23;20044;-58
2024/04/08 03:15:15;;;;;;;25.92;4.28;;;;;;;;;;6202944;23;20607;-59
2024/04/08 03:18:09;;;;;;;23.05;4.30;;;;;;;;;;6204851;23;20082;-52
2024/04/08 03:20:54;;;;;;;27.02;4.07;;;;;;;;;;6204238;23;20025;-52
2024/04/08 03:23:47;;;;;;;36.70;4.25;;;;;;;;;;6203344;23;20477;-54
2024/04/08 03:26:40;;;;;;;31.50;5.35;;;;;;;;;;6209217;23;20024;-51
2024/04/08 03:29:33;;;;;;;27.92;4.15;;;;;;;;;;6210427;23;20821;-54
2024/04/08 03:32:20;;;;;;;25.50;3.95;;;;;;;;;;6210547;23;20027;-63
2024/04/08 03:35:13;;;;;;;23.75;4.35;;;;;;;;;;6210157;23;20024;-64
2024/04/08 03:37:59;;;;;;;28.13;4.38;;;;;;;;;;6208642;23;20020;-64
2024/04/08 03:40:59;;;;;;;27.27;4.32;;;;;;;;;;6207639;23;20094;-63
2024/04/08 03:43:45;;;;;;;24.05;3.88;;;;;;;;;;6208750;23;20016;-63
2024/04/08 03:46:37;;;;;;;23.67;4.28;;;;;;;;;;6207846;23;20028;-64
2024/04/08 03:49:24;;;;;;;29.55;4.38;;;;;;;;;;6210681;23;20020;-64
2024/04/08 03:52:16;;;;;;;16.73;3.95;;;;;;;;;;6208980;23;20032;-64
2024/04/08 03:55:03;;;;;;;25.02;4.50;;;;;;;;;;6201726;23;20020;-64
2024/04/08 03:57:56;;;;;;;24.00;4.15;;;;;;;;;;6206872;23;20027;-58
2024/04/08 04:00:42;;;;;;;22.40;3.78;;;;;;;;;;6207817;23;20568;-61
2024/04/08 04:03:35;;;;;;;21.55;3.65;;;;;;;;;;6209042;23;20020;-61
2024/04/08 04:06:28;;;;;;;23.75;3.65;;;;;;;;;;6209491;23;20031;-61
2024/04/08 04:09:20;;;;;;;23.88;4.18;;;;;;;;;;6209465;23;20458;-61
2024/04/08 04:12:07;;;;;;;23.13;4.38;;;;;;;;;;6209677;23;20020;-60
2024/04/08 04:15:03;;;;;;;33.17;4.28;;;;;;;;;;6210342;23;20365;-46
2024/04/08 04:17:49;;;;;;;30.35;4.45;;;;;;;;;;6210585;23;20020;-49
2024/04/08 04:20:44;;;;;;;27.52;4.50;;;;;;;;;;6208439;23;20356;-52
2024/04/08 04:23:29;;;;;;;21.65;4.28;;;;;;;;;;6207253;23;20481;-50
2024/04/08 04:26:28;;;;;;;26.25;4.30;;;;;;;;;;6207062;23;20024;-62
2024/04/08 04:29:21;;;;;;;29.17;4.10;;;;;;;;;;6208166;23;20028;-62
2024/04/08 04:32:13;;;;;;;25.10;4.03;;;;;;;;;;6206539;23;20432;-63
2024/04/08 04:35:00;;;;;;;30.20;4.38;;;;;;;;;;6207748;23;20078;-63
2024/04/08 04:37:52;;;;;;;28.45;4.18;;;;;;;;;;6208257;23;20020;-62
2024/04/08 04:40:39;;;;;;;24.38;4.55;;;;;;;;;;6209578;23;20023;-63
2024/04/08 04:43:38;;;;;;;23.15;4.43;;;;;;;;;;6208594;23;20024;-63
2024/04/08 04:46:31;;;;;;;21.92;4.20;;;;;;;;;;6205517;23;20477;-63
2024/04/08 04:49:17;;;;;;;18.33;4.15;;;;;;;;;;6205520;23;20032;-63
2024/04/08 04:52:13;;;;;;;33.72;4.25;;;;;;;;;;6204986;23;20027;-63
2024/04/08 04:54:59;;;;;;;31.88;5.13;;;;;;;;;;6204076;23;20356;-55
2024/04/08 04:57:52;;;;;;;24.92;4.95;;;;;;;;;;6204772;23;20449;-59
2024/04/08 05:00:38;;;;;;;21.52;4.32;;;;;;;;;;6207334;23;20397;-58
2024/04/08 05:03:30;;;;;;;28.65;5.18;;;;;;;;;;6206190;23;20024;-59
2024/04/08 05:05:58;;;;;;;21.33;4.28;;;;;;;;;;6209351;23;20028;-58
2024/04/08 05:08:24;;;;;;;23.98;3.80;;;;;;;;;;6183873;23;20020;-58
2024/04/08 05:10:58;;;;;;;19.73;3.63;;;;;;;;;;6211500;23;20472;-58
2024/04/08 05:13:24;;;;;;;24.08;4.07;;;;;;;;;;6210697;23;20016;-58
2024/04/08 05:16:03;;;;;;;18.95;4.35;;;;;;;;;;6208737;23;20517;-57
2024/04/08 05:18:35;;;;;;;31.45;3.97;;;;;;;;;;6185977;23;20564;-59
2024/04/08 05:21:02;;;;;;;27.50;4.63;;;;;;;;;;6210463;23;20016;-60
2024/04/08 05:23:28;;;;;;;22.00;4.10;;;;;;;;;;6209081;23;20024;-59
2024/04/08 05:26:08;;;;;;;26.42;4.47;;;;;;;;;;6209196;23;20374;-60
2024/04/08 05:28:41;;;;;;;33.40;4.93;;;;;;;;;;6180022;23;20071;-60
2024/04/08 05:31:14;;;;;;;25.95;4.20;;;;;;;;;;6204803;23;20094;-60
2024/04/08 05:33:40;;;;;;;25.08;3.90;;;;;;;;;;6179133;23;20021;-59
2024/04/08 05:36:06;;;;;;;28.23;4.60;;;;;;;;;;6180366;23;20091;-61
2024/04/08 05:38:40;;;;;;;30.63;5.10;;;;;;;;;;6180015;23;20021;-59
2024/04/08 05:41:06;;;;;;;20.30;4.03;;;;;;;;;;6181164;23;20028;-52
2024/04/08 05:43:46;;;;;;;23.10;4.07;;;;;;;;;;6180429;23;20031;-51
2024/04/08 05:46:12;;;;;;;21.95;3.75;;;;;;;;;;6179633;23;20028;-49
2024/04/08 05:48:39;;;;;;;26.27;4.43;;;;;;;;;;6179147;23;20028;-52
2024/04/08 05:51:12;;;;;;;24.38;3.90;;;;;;;;;;6180788;23;20035;-66
2024/04/08 05:53:38;;;;;;;24.67;4.23;;;;;;;;;;6180139;23;20219;-49
2024/04/08 05:56:04;;;;;;;18.67;3.45;;;;;;;;;;6180119;23;20028;-52
2024/04/08 05:58:37;;;;;;;18.60;3.58;;;;;;;;;;6177757;23;20027;-52
2024/04/08 06:01:04;;;;;;;19.88;3.78;;;;;;;;;;6179627;23;20504;-50
2024/04/08 06:03:30;;;;;;;26.77;4.00;;;;;;;;;;6178923;23;20020;-56
2024/04/08 06:06:06;;;;;;;18.48;3.55;;;;;;;;;;6180923;23;20029;-52
2024/04/08 06:08:32;;;;;;;30.17;3.97;;;;;;;;;;6178942;23;20017;-62
2024/04/08 06:11:06;;;;;;;19.27;3.20;;;;;;;;;;6180357;23;20024;-61
2024/04/08 06:13:32;;;;;;;26.95;4.38;;;;;;;;;;6178998;23;20120;-60
2024/04/08 06:15:58;;;;;;;21.10;3.67;;;;;;;;;;6178706;23;20470;-61
2024/04/08 06:18:31;;;;;;;28.73;4.28;;;;;;;;;;6179363;23;20017;-61
2024/04/08 06:20:58;;;;;;;24.40;4.13;;;;;;;;;;6180021;23;20025;-63
2024/04/08 06:23:31;;;;;;;23.55;4.05;;;;;;;;;;6178542;23;20024;-50
2024/04/08 06:25:58;;;;;;;17.15;3.42;;;;;;;;;;6180455;23;20024;-48
2024/04/08 06:28:24;;;;;;;24.98;3.85;;;;;;;;;;6206806;23;20094;-49
2024/04/08 06:30:57;;;;;;;21.20;3.65;;;;;;;;;;6208926;23;20464;-47
2024/04/08 06:33:23;;;;;;;20.83;4.25;;;;;;;;;;6209350;23;20024;-48
2024/04/08 06:35:51;;;;;;;17.55;3.45;;;;;;;;;;6210081;23;20531;-52
2024/04/08 06:38:24;;;;;;;20.77;3.63;;;;;;;;;;6209928;23;20031;-59
2024/04/08 06:40:50;;;;;;;25.00;3.42;;;;;;;;;;6209864;23;20024;-58
2024/04/08 06:43:23;;;;;;;17.10;3.75;;;;;;;;;;6208512;23;20082;-57
2024/04/08 06:46:02;;;;;;;25.77;4.35;;;;;;;;;;6209428;23;20027;-58
2024/04/08 06:48:29;;;;;;;21.80;3.42;;;;;;;;;;6209918;23;20023;-60
2024/04/08 06:50:56;;;;;;;24.13;4.20;;;;;;;;;;6210414;23;20024;-61
2024/04/08 06:53:29;;;;;;;18.30;3.47;;;;;;;;;;6208073;23;20020;-61
2024/04/08 06:55:55;;;;;;;20.13;3.50;;;;;;;;;;6209642;23;20027;-61
2024/04/08 06:58:22;;;;;;;19.75;4.22;;;;;;;;;;6183977;23;20020;-61
2024/04/08 07:00:55;;;;;;;19.33;3.88;;;;;;;;;;6208457;23;20097;-61
2024/04/08 07:03:21;;;;;;;21.95;3.63;;;;;;;;;;6209321;23;20024;-61
2024/04/08 07:05:47;;;;;;;24.42;3.58;;;;;;;;;;6209414;23;20094;-66
2024/04/08 07:08:21;;;;;;;17.65;3.20;;;;;;;;;;6209433;23;20020;-66
2024/04/08 07:10:47;;;;;;;19.10;3.53;;;;;;;;;;6208743;23;20028;-66
2024/04/08 07:13:13;;;;;;;20.17;3.67;;;;;;;;;;6208253;23;20413;-66
2024/04/08 07:15:55;;;;;;;18.25;3.92;;;;;;;;;;6208563;23;20031;-53
2024/04/08 07:18:22;;;;;;;17.88;3.17;;;;;;;;;;6210029;23;20102;-65
2024/04/08 07:20:55;;;;;;;23.05;3.40;;;;;;;;;;6209117;23;20020;-65
2024/04/08 07:23:21;;;;;;;22.85;4.20;;;;;;;;;;6209262;23;20024;-64
2024/04/08 07:25:50;;;;;;;16.38;3.33;;;;;;;;;;6207764;23;20028;-64
2024/04/08 07:28:29;;;;;;;20.17;3.53;;;;;;;;;;6202542;23;20036;-64
2024/04/08 07:30:56;;;;;;;24.95;3.72;;;;;;;;;;6203700;23;20489;-64
2024/04/08 07:33:22;;;;;;;15.82;3.05;;;;;;;;;;6205434;23;20423;-62
2024/04/08 07:35:55;;;;;;;22.50;4.35;;;;;;;;;;6203608;23;20039;-62
2024/04/08 07:38:21;;;;;;;16.70;3.00;;;;;;;;;;6204743;23;20295;-62
2024/04/08 07:40:47;;;;;;;20.23;3.78;;;;;;;;;;6203031;23;20031;-61
2024/04/08 07:43:20;;;;;;;15.25;3.65;;;;;;;;;;6203810;23;20017;-52
2024/04/08 07:45:52;;;;;;;24.17;3.85;;;;;;;;;;6203859;23;20294;-64
2024/04/08 07:48:21;;;;;;;16.98;3.92;;;;;;;;;;6205377;23;20367;-65
2024/04/08 07:50:56;;;;;;;28.00;3.92;;;;;;;;;;6203753;23;20155;-64
2024/04/08 07:53:22;;;;;;;25.77;3.75;;;;;;;;;;6204651;23;20584;-65
2024/04/08 07:55:55;;;;;;;22.98;3.83;;;;;;;;;;6202975;23;20799;-65
2024/04/08 07:58:21;;;;;;;21.02;3.80;;;;;;;;;;6204339;23;20025;-65
2024/04/08 08:00:58;;;;;;;25.58;4.72;;;;;;;;;;6205441;23;20028;-64
2024/04/08 08:03:31;;;;;;;20.83;4.18;;;;;;;;;;6206534;23;20020;-53
2024/04/08 08:05:57;;;;;;;20.90;4.15;;;;;;;;;;6206294;23;20063;-52
2024/04/08 08:08:25;;;;;;;24.95;4.38;;;;;;;;;;6205554;23;20235;-53
2024/04/08 08:11:03;;;;;;;20.58;3.75;;;;;;;;;;6206705;23;20036;-52
2024/04/08 08:13:30;;;;;;;22.02;3.90;;;;;;;;;;6205024;23;20059;-60
2024/04/08 08:15:57;;;;;;;21.67;4.05;;;;;;;;;;6205406;23;20035;-53
2024/04/08 08:18:31;;;;;;;22.10;4.35;;;;;;;;;;6183126;23;20020;-54
2024/04/08 08:21:00;;;;;;;18.58;3.97;;;;;;;;;;6180820;23;20043;-53
2024/04/08 08:23:26;;;;;;;19.83;3.70;;;;;;;;;;6180731;23;20556;-53
2024/04/08 08:26:00;;;;;;;22.52;4.53;;;;;;;;;;6205677;23;20031;-50
2024/04/08 08:28:27;;;;;;;16.38;3.67;;;;;;;;;;6208902;23;20462;-51
2024/04/08 08:30:59;;;;;;;19.90;3.78;;;;;;;;;;6210522;23;20028;-60
2024/04/08 08:33:26;;;;;;;15.50;3.40;;;;;;;;;;6211933;23;20070;-61
2024/04/08 08:35:52;;;;;;;24.58;4.35;;;;;;;;;;6209796;23;20471;-60
2024/04/08 08:38:24;;;;;;;19.73;3.92;;;;;;;;;;6211174;23;20020;-61
2024/04/08 08:40:54;;;;;;;19.92;3.88;;;;;;;;;;6209910;23;20024;-62
2024/04/08 08:43:26;;;;;;;23.27;4.13;;;;;;;;;;6210303;23;20024;-65
2024/04/08 08:46:06;;;;;;;20.42;3.55;;;;;;;;;;6209151;23;20862;-65
2024/04/08 08:48:33;;;;;;;24.30;4.25;;;;;;;;;;6211615;23;20552;-65
2024/04/08 08:51:02;;;;;;;24.80;5.30;;;;;;;;;;6209897;23;20575;-65
2024/04/08 08:53:36;;;;;;;24.52;3.60;;;;;;;;;;6210685;23;20405;-65
2024/04/08 08:56:03;;;;;;;15.68;3.30;;;;;;;;;;6208815;23;20539;-65
2024/04/08 08:58:30;;;;;;;18.30;3.70;;;;;;;;;;6210864;23;20394;-50
2024/04/08 09:01:03;;;;;;;20.60;3.80;;;;;;;;;;6209723;23;20493;-52
2024/04/08 09:03:33;;;;;;;20.73;4.13;;;;;;;;;;6210481;23;20378;-50
2024/04/08 09:06:09;;;;;;;18.33;4.07;;;;;;;;;;6209796;23;20078;-49
2024/04/08 09:08:35;;;;;;;18.55;4.45;;;;;;;;;;6209306;23;20032;-62
2024/04/08 09:11:06;;;;;;;23.00;4.03;;;;;;;;;;6208647;23;20331;-66
2024/04/08 09:13:39;;;;;;;23.40;4.30;;;;;;;;;;6208481;23;20024;-59
2024/04/08 09:16:05;;;;;;;15.27;3.92;;;;;;;;;;6209803;23;20024;-59
2024/04/08 09:18:37;;;;;;;22.65;4.60;;;;;;;;;;6210177;23;20031;-59
2024/04/08 09:21:04;;;;;;;18.27;4.03;;;;;;;;;;6209544;23;20416;-59
2024/04/08 09:23:35;;;;;;;17.02;3.55;;;;;;;;;;6209225;23;20572;-59
2024/04/08 09:26:08;;;;;;;19.63;4.18;;;;;;;;;;6210407;23;20023;-59
2024/04/08 09:28:40;;;;;;;18.33;3.88;;;;;;;;;;6207990;23;20024;-62
2024/04/08 09:31:14;;;;;;;26.35;3.85;;;;;;;;;;6210033;23;20024;-61
2024/04/08 09:33:49;;;;;;;18.80;3.90;;;;;;;;;;6209937;23;20024;-61
2024/04/08 09:36:17;;;;;;;16.73;3.83;;;;;;;;;;6210577;23;20027;-61
2024/04/08 09:38:43;;;;;;;22.95;3.88;;;;;;;;;;6210644;23;20462;-53
2024/04/08 09:41:17;;;;;;;24.98;3.70;;;;;;;;;;6209455;23;20024;-55
2024/04/08 09:43:57;;;;;;;18.77;3.90;;;;;;;;;;6208144;23;20172;-55
2024/04/08 09:46:23;;;;;;;23.25;4.55;;;;;;;;;;6210149;23;20256;-55
2024/04/08 09:48:55;;;;;;;25.08;4.97;;;;;;;;;;6210493;23;20024;-55
2024/04/08 09:51:22;;;;;;;18.43;4.90;;;;;;;;;;6210524;23;20046;-53
2024/04/08 09:53:48;;;;;;;22.23;3.90;;;;;;;;;;6209715;23;20020;-52
2024/04/08 09:56:22;;;;;;;21.40;4.20;;;;;;;;;;6209694;23;20024;-66
2024/04/08 09:59:12;;;;;;;22.75;4.95;;;;;;;;;;6208545;23;20453;-66
2024/04/08 10:01:45;;;;;;;22.63;4.85;;;;;;;;;;6196713;23;20039;-66
2024/04/08 10:04:22;;;;;;;27.40;4.60;;;;;;;;;;6209076;23;20021;-66
2024/04/08 10:06:56;;;;;;;21.85;4.25;;;;;;;;;;6210065;23;20024;-62
2024/04/08 10:09:22;;;;;;;15.75;4.15;;;;;;;;;;6209032;23;20034;-62
2024/04/08 10:11:52;;;;;;;27.63;4.30;;;;;;;;;;6209247;23;20020;-62
2024/04/08 10:14:28;;;;;;;21.15;4.75;;;;;;;;;;6210472;23;20024;-62
2024/04/08 10:16:55;;;;;;;24.52;4.43;;;;;;;;;;6208379;23;20470;-62
2024/04/08 10:19:21;;;;;;;;;;;;;;;;;;6210404;23;20020;-62
2024/04/08 10:21:59;;;;;;;28.77;5.25;;;;;;;;;;6209527;23;19923;-62
2024/04/08 11:18:08;;;;;;;27.92;5.18;;;;;;;;;;6067384;21;8239718;-89
2024/04/08 11:20:42;;;;;;;18.17;4.10;;;;;;;;;;6426697;22;20008;-90
2024/04/08 11:23:12;;;;;;;;;;;;;;;;;;6383846;22;20003;-90
2024/04/08 11:25:39;;;;;;;24.85;4.60;;;;;;;;;;6382985;22;20380;-91
2024/04/08 11:28:14;;;;;;;16.90;3.92;;;;;;;;;;6385415;22;20002;-90
2024/04/08 11:30:48;;;;;;;17.90;3.85;;;;;;;;;;6386457;22;20014;-90
2024/04/08 11:33:15;;;;;;;18.75;3.97;;;;;;;;;;6382745;22;20018;-88
2024/04/08 11:35:43;;;;;;;23.38;4.18;;;;;;;;;;6423812;22;20315;-90
2024/04/08 11:38:19;;;;;;;24.83;4.60;;;;;;;;;;6377777;22;20002;-90
2024/04/08 11:41:02;;;;;;;21.80;3.83;;;;;;;;;;6420275;22;20003;-89
2024/04/08 11:43:37;;;;;;;22.55;4.18;;;;;;;;;;6378670;22;20448;-90
2024/04/08 11:46:12;;;;;;;23.52;4.05;;;;;;;;;;6421462;22;20051;-89
2024/04/08 11:48:47;;;;;;;22.48;4.72;;;;;;;;;;6378989;22;20007;-90
2024/04/08 11:51:14;;;;;;;;;;;;;;;;;;6377316;22;20002;-89
2024/04/08 11:53:41;;;;;;;19.42;4.00;;;;;;;;;;6419127;22;19923;-88
2024/04/08 11:56:16;;;;;;;18.67;4.07;;;;;;;;;;6378246;22;20397;-89
2024/04/08 11:58:43;;;;;;;23.65;5.32;;;;;;;;;;6375349;22;20094;-88
2024/04/08 12:01:11;;;;;;;;;;;;;;;;;;6377174;22;20011;-89
2024/04/08 12:03:45;;;;;;;20.23;3.95;;;;;;;;;;6417462;22;19935;-90
2024/04/08 12:06:12;;;;;;;;;;;;;;;;;;6376485;22;20408;-90
2024/04/08 12:08:39;;;;;;;28.33;4.70;;;;;;;;;;6375766;22;19967;-90
2024/04/08 12:11:14;;;;;;;15.32;3.72;;;;;;;;;;6378054;22;19998;-90
2024/04/08 12:13:41;;;;;;;;;;;;;;;;;;6375906;22;19999;-89
2024/04/08 12:16:22;;;;;;;20.42;4.63;;;;;;;;;;6419055;22;19934;-90
2024/04/08 12:18:49;;;;;;;24.20;4.28;;;;;;;;;;6418734;22;20399;-92
2024/04/08 12:21:24;;;;;;;22.17;4.00;;;;;;;;;;6376937;22;19999;-90
2024/04/08 12:23:53;;;;;;;20.20;4.70;;;;;;;;;;6418897;22;20403;-89
2024/04/08 12:26:21;;;;;;;24.13;4.38;;;;;;;;;;6375153;22;20807;-90
2024/04/08 12:28:55;;;;;;;15.45;3.65;;;;;;;;;;6377371;22;20014;-90
2024/04/08 12:31:23;;;;;;;22.17;3.85;;;;;;;;;;6375209;22;20013;-88
2024/04/08 12:33:50;;;;;;;;;;;;;;;;;;6376307;22;20010;-90
2024/04/08 12:36:25;;;;;;;19.55;3.83;;;;;;;;;;6377910;22;19923;-90
2024/04/08 12:38:57;;;;;;;26.02;4.85;;;;;;;;;;6377683;22;20014;-90
2024/04/08 12:41:31;;;;;;;19.75;3.55;;;;;;;;;;6417328;22;19994;-89
2024/04/08 12:44:01;;;;;;;22.38;4.30;;;;;;;;;;6419408;22;20014;-89
2024/04/08 12:46:35;;;;;;;15.27;3.75;;;;;;;;;;6376373;22;20002;-88
2024/04/08 12:49:10;;;;;;;19.13;3.80;;;;;;;;;;6420036;22;20006;-90
2024/04/08 12:51:37;;;;;;;18.77;3.67;;;;;;;;;;6419565;22;20010;-90
2024/04/08 12:54:09;;;;;;;18.65;4.32;;;;;;;;;;6379253;22;20078;-89
2024/04/08 12:56:43;;;;;;;18.42;3.83;;;;;;;;;;6418570;22;20034;-90
2024/04/08 12:59:11;;;;;;;21.05;4.07;;;;;;;;;;6418058;22;20003;-90
2024/04/08 13:01:38;;;;;;;20.73;4.07;;;;;;;;;;6418084;22;20311;-89
2024/04/08 13:04:13;;;;;;;23.80;3.90;;;;;;;;;;6377065;22;20013;-91
2024/04/08 13:06:40;;;;;;;20.20;4.00;;;;;;;;;;6418454;22;20051;-89
2024/04/08 13:09:08;;;;;;;18.88;4.43;;;;;;;;;;6375423;22;20355;-90
2024/04/08 13:11:42;;;;;;;23.08;3.78;;;;;;;;;;6377278;22;20003;-89
2024/04/08 13:14:09;;;;;;;;;;;;;;;;;;6418540;22;20002;-89
2024/04/08 13:16:50;;;;;;;23.65;3.67;;;;;;;;;;6376860;22;19935;-90
2024/04/08 13:19:24;;;;;;;20.05;3.65;;;;;;;;;;6375614;22;20369;-91
2024/04/08 13:21:58;;;;;;;26.15;4.55;;;;;;;;;;6418680;22;20309;-91
2024/04/08 13:24:25;;;;;;;22.23;3.80;;;;;;;;;;6417875;22;20014;-91
2024/04/08 13:26:53;;;;;;;;;;;;;;;;;;6418856;22;20004;-89
2024/04/08 13:29:26;;;;;;;22.33;4.05;;;;;;;;;;6376051;22;19929;-90
2024/04/08 13:31:54;;;;;;;22.75;4.22;;;;;;;;;;6374154;22;19994;-89
2024/04/08 13:34:27;;;;;;;27.60;4.65;;;;;;;;;;6418287;22;20494;-90
2024/04/08 13:36:55;;;;;;;23.48;4.20;;;;;;;;;;6374845;22;20034;-89
2024/04/08 13:39:22;;;;;;;;;;;;;;;;;;6418511;22;20097;-90
2024/04/08 13:41:57;;;;;;;20.38;4.63;;;;;;;;;;6377194;22;20109;-90
2024/04/08 13:44:24;;;;;;;;;;;;;;;;;;6375634;22;20003;-90
2024/04/08 13:47:05;;;;;;;21.70;3.88;;;;;;;;;;6377581;22;20291;-90
2024/04/08 13:49:33;;;;;;;27.00;4.93;;;;;;;;;;6375919;22;20010;-90
2024/04/08 13:52:11;;;;;;;18.38;3.80;;;;;;;;;;6379694;22;20013;-90
2024/04/08 13:54:40;;;;;;;;;;;;;;;;;;6375331;22;20003;-90
2024/04/08 13:57:15;;;;;;;18.42;3.85;;;;;;;;;;6418357;22;19951;-89
2024/04/08 13:59:42;;;;;;;;;;;;;;;;;;6374945;22;20009;-89
2024/04/08 14:02:10;;;;;;;17.77;3.50;;;;;;;;;;6374944;22;20003;-90
2024/04/08 14:04:45;;;;;;;17.95;3.90;;;;;;;;;;6418015;22;20006;-90
2024/04/08 14:07:12;;;;;;;;;;;;;;;;;;6418468;22;20009;-89
2024/04/08 14:09:46;;;;;;;24.00;4.75;;;;;;;;;;6375784;22;19990;-89
2024/04/08 14:12:14;;;;;;;;;;;;;;;;;;6376045;22;20148;-90
2024/04/08 14:14:41;;;;;;;15.02;3.05;;;;;;;;;;6374209;22;19947;-89
2024/04/08 14:17:22;;;;;;;20.63;3.45;;;;;;;;;;6416553;22;20002;-90
2024/04/08 14:19:49;;;;;;;19.65;3.58;;;;;;;;;;6417597;22;20003;-89
2024/04/08 14:22:23;;;;;;;21.50;3.88;;;;;;;;;;6377194;22;19994;-89
2024/04/08 14:24:51;;;;;;;19.83;3.25;;;;;;;;;;6373183;22;20269;-89
2024/04/08 14:27:18;;;;;;;;;;;;;;;;;;6418901;22;20002;-88
2024/04/08 14:29:53;;;;;;;14.82;3.22;;;;;;;;;;6375876;22;20222;-89
2024/04/08 14:32:27;;;;;;;19.52;3.40;;;;;;;;;;6415958;22;20068;-90
2024/04/08 14:35:01;;;;;;;17.15;3.70;;;;;;;;;;6414211;22;20002;-89
2024/04/08 14:37:28;;;;;;;;;;;;;;;;;;6376071;22;20007;-89
2024/04/08 14:40:10;;;;;;;22.30;4.00;;;;;;;;;;6417712;22;20013;-89
2024/04/08 14:42:45;;;;;;;16.90;3.50;;;;;;;;;;6417014;22;20444;-89
2024/04/08 14:45:19;;;;;;;19.60;4.13;;;;;;;;;;6374100;22;20003;-90
2024/04/08 14:47:54;;;;;;;16.52;3.50;;;;;;;;;;6417337;22;20402;-90
2024/04/08 14:50:21;;;;;;;;;;;;;;;;;;6415913;22;20330;-90
2024/04/08 14:52:48;;;;;;;17.77;3.63;;;;;;;;;;6417567;22;19930;-89
2024/04/08 14:55:23;;;;;;;12.55;3.22;;;;;;;;;;6413085;22;20002;-88
2024/04/08 14:57:51;;;;;;;19.35;3.83;;;;;;;;;;6417591;22;20003;-90
2024/04/08 15:00:26;;;;;;;20.90;3.88;;;;;;;;;;6418988;22;20034;-89
2024/04/08 15:02:54;;;;;;;17.80;3.50;;;;;;;;;;6418461;22;20002;-89
2024/04/08 15:05:28;;;;;;;14.38;2.70;;;;;;;;;;6417675;22;20452;-90
2024/04/08 15:07:56;;;;;;;15.55;3.47;;;;;;;;;;6413920;22;20003;-89
2024/04/08 15:10:23;;;;;;;12.45;3.03;;;;;;;;;;6419597;22;20018;-88
2024/04/08 15:12:57;;;;;;;13.98;2.80;;;;;;;;;;6380480;22;19998;-87
2024/04/08 15:15:25;;;;;;;14.88;2.90;;;;;;;;;;6378746;22;20114;-89
2024/04/08 15:18:06;;;;;;;15.88;3.00;;;;;;;;;;6419916;22;19994;-89
2024/04/08 15:20:33;;;;;;;16.20;3.13;;;;;;;;;;6420841;22;20018;-89
2024/04/08 15:23:08;;;;;;;14.18;3.10;;;;;;;;;;6418337;22;20006;-89
2024/04/08 15:25:35;;;;;;;14.90;3.20;;;;;;;;;;6374111;22;20682;-88
2024/04/08 15:28:03;;;;;;;;;;;;;;;;;;6413371;22;20014;-88
2024/04/08 15:30:37;;;;;;;11.00;2.75;;;;;;;;;;6376782;22;19993;-89
2024/04/08 15:35:40;;;;;;;17.58;3.70;;;;;;;;;;6499602;21;20427;-61
2024/04/08 15:38:15;;;;;;;12.57;3.35;;;;;;;;;;6558329;21;20007;-62
2024/04/08 15:40:42;;;;;;;19.00;3.17;;;;;;;;;;6570927;21;19997;-61
2024/04/08 15:43:10;;;;;;;11.50;2.90;;;;;;;;;;6567827;21;19993;-61
2024/04/08 15:45:57;;;;;;;18.63;3.55;;;;;;;;;;6556885;21;20001;-61
2024/04/08 15:48:32;;;;;;;18.67;3.28;;;;;;;;;;6458351;22;20002;-61
2024/04/08 15:51:06;;;;;;;15.63;3.28;;;;;;;;;;6464585;22;19997;-52
2024/04/08 15:53:53;;;;;;;16.02;3.30;;;;;;;;;;6442543;22;20008;-62
2024/04/08 15:56:47;;;;;;;11.90;3.10;;;;;;;;;;6460445;22;19998;-61
2024/04/08 15:59:35;;;;;;;22.05;3.55;;;;;;;;;;6447486;22;19994;-60
2024/04/08 16:02:28;;;;;;;16.73;3.30;;;;;;;;;;6461740;22;20080;-60
2024/04/08 16:05:16;;;;;;;20.58;3.30;;;;;;;;;;6388132;22;20557;-59
2024/04/08 16:08:11;;;;;;;17.95;3.45;;;;;;;;;;6357551;22;20434;-60
2024/04/08 16:10:59;;;;;;;14.93;3.25;;;;;;;;;;6409316;22;20482;-60
2024/04/08 16:13:52;;;;;;;22.17;3.85;;;;;;;;;;6412977;22;20321;-61